Time;durP1;ratioP1;P1;durP2;ratioP2;P2;SDS_P1;SDS_P2;PMS_P1;PMS_P2;Temp;Humidity;BMP_temperature;BMP_pressure;BME280_temperature;BME280_humidity;BME280_pressure;Samples;Min_cycle;Max_cycle;Signal;HPM_P1;HPM_P2
2022/09/30 00:01:12;;;;;;;;;;;10.30;99.90;;;;;;5012173;28;19913;-90
2022/09/30 00:03:37;;;;;;;;;;;10.20;99.90;;;;;;5011733;28;19921;-90
2022/09/30 00:06:04;;;;;;;;;;;10.20;99.90;;;;;;5029762;28;19917;-91
2022/09/30 00:08:30;;;;;;;;;;;10.20;99.90;;;;;;5011839;28;19939;-90
2022/09/30 00:11:03;;;;;;;;;;;10.20;99.90;;;;;;5009576;28;19917;-91
2022/09/30 00:13:31;;;;;;;;;;;10.30;99.90;;;;;;5028039;28;20618;-90
2022/09/30 00:15:57;;;;;;;;;;;10.30;99.90;;;;;;5011462;28;19944;-89
2022/09/30 00:18:22;;;;;;;;;;;10.20;99.90;;;;;;5028513;28;19961;-90
2022/09/30 00:20:48;;;;;;;;;;;10.20;99.90;;;;;;5028330;28;19948;-88
2022/09/30 00:23:13;;;;;;;;;;;10.10;99.90;;;;;;5028083;28;19933;-91
2022/09/30 00:25:39;;;;;;;;;;;10.00;99.90;;;;;;5027369;28;19924;-89
2022/09/30 00:28:06;;;;;;;;;;;10.10;99.90;;;;;;5010672;28;20336;-91
2022/09/30 00:30:33;;;;;;;;;;;10.20;99.90;;;;;;5010173;28;19924;-89
2022/09/30 00:32:58;;;;;;;;;;;10.10;99.90;;;;;;5028442;28;19917;-88
2022/09/30 00:35:24;;;;;;;;;;;10.10;99.90;;;;;;5027803;28;19924;-89
2022/09/30 00:37:49;;;;;;;;;;;10.00;99.90;;;;;;5027993;28;20376;-89
2022/09/30 00:40:15;;;;;;;;;;;10.00;99.90;;;;;;5028056;28;19983;-88
2022/09/30 00:42:40;;;;;;;;;;;10.00;99.90;;;;;;5028253;28;19928;-87
2022/09/30 00:45:09;;;;;;;;;;;10.10;99.90;;;;;;5034619;28;19923;-87
2022/09/30 00:47:35;;;;;;;;;;;10.20;99.90;;;;;;5009723;28;19956;-88
2022/09/30 00:50:11;;;;;;;;;;;10.10;99.90;;;;;;5026381;28;19960;-88
2022/09/30 00:52:37;;;;;;;;;;;10.10;99.90;;;;;;5009683;28;19917;-88
2022/09/30 00:55:05;;;;;;;;;;;10.10;99.90;;;;;;5000267;28;20445;-89
2022/09/30 00:57:30;;;;;;;;;;;10.10;99.90;;;;;;5021444;28;20372;-90
2022/09/30 00:59:56;;;;;;;;;;;10.10;99.90;;;;;;5010311;28;19947;-88
2022/09/30 01:02:23;;;;;;;;;;;10.00;99.90;;;;;;5027028;28;20721;-89
2022/09/30 01:04:48;;;;;;;;;;;10.10;99.90;;;;;;5024832;28;19996;-86
2022/09/30 01:07:14;;;;;;;;;;;10.10;99.90;;;;;;5027413;28;20015;-87
2022/09/30 01:09:40;;;;;;;;;;;10.10;99.90;;;;;;5009644;28;20534;-83
2022/09/30 01:12:07;;;;;;;;;;;10.10;99.90;;;;;;5026474;28;19923;-84
2022/09/30 01:14:33;;;;;;;;;;;10.10;99.90;;;;;;5009128;28;19952;-83
2022/09/30 01:17:05;;;;;;;;;;;10.10;99.90;;;;;;5026860;28;19964;-85
2022/09/30 01:19:50;;;;;;;;;;;10.00;99.90;;;;;;5009503;28;20419;-84
2022/09/30 01:22:16;;;;;;;;;;;10.00;99.90;;;;;;5027431;28;20026;-84
2022/09/30 01:24:41;;;;;;;;;;;9.90;99.90;;;;;;5031268;28;20019;-86
2022/09/30 01:27:15;;;;;;;;;;;9.90;99.90;;;;;;5013185;28;20000;-85
2022/09/30 01:30:00;;;;;;;;;;;9.80;99.90;;;;;;5031532;28;20300;-85
2022/09/30 01:32:28;;;;;;;;;;;9.80;99.90;;;;;;5029097;28;19925;-86
2022/09/30 01:34:58;;;;;;;;;;;9.80;99.90;;;;;;5013333;28;19971;-87
2022/09/30 01:37:30;;;;;;;;;;;9.70;99.90;;;;;;5031025;28;19917;-87
2022/09/30 01:40:04;;;;;;;;;;;9.70;99.90;;;;;;5029451;28;19928;-86
2022/09/30 01:42:42;;;;;;;;;;;9.60;99.90;;;;;;5007339;28;19925;-86
2022/09/30 01:45:36;;;;;;;;;;;9.50;99.90;;;;;;5027142;28;19932;-86
2022/09/30 01:48:07;;;;;;;;;;;9.50;99.90;;;;;;5016059;28;19932;-85
2022/09/30 01:50:35;;;;;;;;;;;9.50;99.90;;;;;;5027245;28;20063;-85
2022/09/30 01:53:01;;;;;;;;;;;9.40;99.90;;;;;;5029400;28;19917;-86
2022/09/30 01:55:30;;;;;;;;;;;9.30;99.90;;;;;;5032063;28;20441;-87
2022/09/30 01:58:08;;;;;;;;;;;9.30;99.90;;;;;;5030666;28;19947;-86
2022/09/30 02:00:36;;;;;;;;;;;9.30;99.90;;;;;;5013295;28;19917;-88
2022/09/30 02:03:08;;;;;;;;;;;9.30;99.90;;;;;;5031927;28;20020;-87
2022/09/30 02:05:40;;;;;;;;;;;9.20;99.90;;;;;;5011059;28;20031;-87
2022/09/30 02:08:15;;;;;;;;;;;9.20;99.90;;;;;;5030329;28;19921;-87
2022/09/30 02:10:43;;;;;;;;;;;9.30;99.90;;;;;;5012663;28;19924;-88
2022/09/30 02:13:19;;;;;;;;;;;9.30;99.90;;;;;;5012921;28;19924;-87
2022/09/30 02:15:48;;;;;;;;;;;9.30;99.90;;;;;;5031027;28;19917;-89
2022/09/30 02:18:18;;;;;;;;;;;9.30;99.90;;;;;;5029923;28;19921;-88
2022/09/30 02:20:46;;;;;;;;;;;9.30;99.90;;;;;;5012141;28;19917;-88
2022/09/30 02:23:14;;;;;;;;;;;9.30;99.90;;;;;;5030222;28;19925;-85
2022/09/30 02:25:46;;;;;;;;;;;9.10;99.90;;;;;;5011606;28;20407;-86
2022/09/30 02:28:14;;;;;;;;;;;8.90;99.90;;;;;;5029871;28;19918;-84
2022/09/30 02:30:43;;;;;;;;;;;9.00;99.90;;;;;;5030820;28;20597;-84
2022/09/30 02:33:11;;;;;;;;;;;8.90;99.90;;;;;;5030160;28;19917;-84
2022/09/30 02:35:36;;;;;;;;;;;8.90;99.90;;;;;;5011598;28;19939;-85
2022/09/30 02:38:05;;;;;;;;;;;8.70;99.90;;;;;;5011968;28;20468;-84
2022/09/30 02:40:49;;;;;;;;;;;8.70;99.90;;;;;;5012050;28;19983;-84
2022/09/30 02:43:15;;;;;;;;;;;8.70;99.90;;;;;;5027862;28;19928;-84
2022/09/30 02:45:55;;;;;;;;;;;8.60;99.90;;;;;;5030026;28;19917;-85
2022/09/30 02:48:47;;;;;;;;;;;8.50;99.90;;;;;;5028230;28;19924;-83
2022/09/30 02:51:14;;;;;;;;;;;8.60;99.90;;;;;;5010147;28;19992;-84
2022/09/30 02:53:45;;;;;;;;;;;8.50;99.90;;;;;;5029916;28;19917;-83
2022/09/30 02:56:10;;;;;;;;;;;8.70;99.90;;;;;;5029912;28;20305;-86
2022/09/30 02:58:38;;;;;;;;;;;8.60;99.90;;;;;;5011830;28;19917;-85
2022/09/30 03:01:09;;;;;;;;;;;8.50;99.90;;;;;;5010595;28;19921;-84
2022/09/30 03:03:38;;;;;;;;;;;8.80;99.90;;;;;;5028317;28;19921;-86
2022/09/30 03:06:04;;;;;;;;;;;8.70;99.90;;;;;;5010277;28;19921;-86
2022/09/30 03:08:29;;;;;;;;;;;8.80;99.90;;;;;;5029558;28;19924;-85
2022/09/30 03:10:55;;;;;;;;;;;8.70;99.90;;;;;;5026753;28;19921;-85
2022/09/30 03:13:24;;;;;;;;;;;8.50;99.90;;;;;;5011944;28;19917;-86
2022/09/30 03:15:51;;;;;;;;;;;8.50;99.90;;;;;;5029067;28;20689;-87
2022/09/30 03:18:37;;;;;;;;;;;8.50;99.90;;;;;;5011193;28;19921;-87
2022/09/30 03:21:08;;;;;;;;;;;8.40;99.90;;;;;;5012884;28;19917;-86
2022/09/30 03:23:40;;;;;;;;;;;8.40;99.90;;;;;;5012079;28;20067;-90
2022/09/30 03:26:08;;;;;;;;;;;8.40;99.90;;;;;;5029773;28;19925;-90
2022/09/30 03:28:43;;;;;;;;;;;8.60;99.90;;;;;;5030221;28;19924;-88
2022/09/30 03:31:17;;;;;;;;;;;8.50;99.90;;;;;;5024112;28;19917;-84
2022/09/30 03:33:50;;;;;;;;;;;8.40;99.90;;;;;;5029202;28;19921;-85
2022/09/30 03:36:22;;;;;;;;;;;8.40;99.90;;;;;;5028600;28;19952;-85
2022/09/30 03:39:03;;;;;;;;;;;8.40;99.90;;;;;;5029120;28;19968;-85
2022/09/30 03:41:41;;;;;;;;;;;8.50;99.90;;;;;;5010757;28;19948;-85
2022/09/30 03:44:13;;;;;;;;;;;8.50;99.90;;;;;;5029359;28;19925;-85
2022/09/30 03:46:53;;;;;;;;;;;8.40;99.90;;;;;;5029015;28;20451;-86
2022/09/30 03:49:24;;;;;;;;;;;8.40;99.90;;;;;;5029146;28;20410;-86
2022/09/30 03:51:49;;;;;;;;;;;8.40;99.90;;;;;;5010817;28;19921;-86
2022/09/30 03:54:15;;;;;;;;;;;8.40;99.90;;;;;;5011017;28;19917;-86
2022/09/30 03:56:42;;;;;;;;;;;8.40;99.90;;;;;;5028270;28;19968;-84
2022/09/30 03:59:11;;;;;;;;;;;8.50;99.90;;;;;;5011439;28;19924;-85
2022/09/30 04:01:38;;;;;;;;;;;8.20;99.90;;;;;;5028348;28;19921;-84
2022/09/30 04:04:03;;;;;;;;;;;8.30;99.90;;;;;;5043054;28;19925;-86
2022/09/30 04:06:29;;;;;;;;;;;8.30;99.90;;;;;;5029326;28;19971;-86
2022/09/30 04:08:54;;;;;;;;;;;8.20;99.90;;;;;;5028807;28;19968;-86
2022/09/30 04:11:20;;;;;;;;;;;8.10;99.90;;;;;;5028042;28;19921;-84
2022/09/30 04:13:45;;;;;;;;;;;8.10;99.90;;;;;;5010335;28;20382;-85
2022/09/30 04:16:11;;;;;;;;;;;8.00;99.90;;;;;;5028157;28;19917;-85
2022/09/30 04:18:37;;;;;;;;;;;8.00;99.90;;;;;;5027659;28;19971;-84
2022/09/30 04:21:10;;;;;;;;;;;7.90;99.90;;;;;;5028258;28;19917;-84
2022/09/30 04:23:36;;;;;;;;;;;7.90;99.90;;;;;;5010188;28;19931;-84
2022/09/30 04:26:02;;;;;;;;;;;7.80;99.90;;;;;;5027549;28;19924;-84
2022/09/30 04:28:28;;;;;;;;;;;7.80;99.90;;;;;;5027551;28;19921;-83
2022/09/30 04:30:54;;;;;;;;;;;7.90;99.90;;;;;;5027853;28;19917;-87
2022/09/30 04:33:19;;;;;;;;;;;7.90;99.90;;;;;;5028823;28;19944;-86
2022/09/30 04:35:45;;;;;;;;;;;8.10;99.90;;;;;;5028411;28;19913;-87
2022/09/30 04:38:10;;;;;;;;;;;8.10;99.90;;;;;;5027882;28;19913;-85
2022/09/30 04:40:36;;;;;;;;;;;8.10;99.90;;;;;;5027723;28;19988;-85
2022/09/30 04:43:02;;;;;;;;;;;8.10;99.90;;;;;;5024143;28;19921;-85
2022/09/30 04:45:28;;;;;;;;;;;8.00;99.90;;;;;;5026906;28;19917;-85
2022/09/30 04:47:54;;;;;;;;;;;8.10;99.90;;;;;;5027143;28;20307;-83
2022/09/30 04:50:20;;;;;;;;;;;8.10;99.90;;;;;;5009849;28;19917;-85
2022/09/30 04:52:46;;;;;;;;;;;8.10;99.90;;;;;;5028173;28;19936;-82
2022/09/30 04:55:12;;;;;;;;;;;8.20;99.90;;;;;;5027040;28;19916;-81
2022/09/30 04:57:37;;;;;;;;;;;8.20;99.90;;;;;;5027388;28;19917;-81
2022/09/30 05:00:04;;;;;;;;;;;8.20;99.90;;;;;;5026849;28;20285;-83
2022/09/30 05:02:30;;;;;;;;;;;8.20;99.90;;;;;;5028809;28;20327;-81
2022/09/30 05:04:56;;;;;;;;;;;8.20;99.90;;;;;;5025935;28;19924;-82
2022/09/30 05:07:21;;;;;;;;;;;8.30;99.90;;;;;;5026482;28;19917;-83
2022/09/30 05:09:47;;;;;;;;;;;8.30;99.90;;;;;;5027611;28;19923;-81
2022/09/30 05:12:14;;;;;;;;;;;8.30;99.90;;;;;;5009453;28;20490;-81
2022/09/30 05:14:40;;;;;;;;;;;8.40;99.90;;;;;;5027515;28;19964;-83
2022/09/30 05:17:05;;;;;;;;;;;8.30;99.90;;;;;;5026755;28;19949;-83
2022/09/30 05:19:31;;;;;;;;;;;8.20;99.90;;;;;;5027158;28;20855;-80
2022/09/30 05:21:56;;;;;;;;;;;8.10;99.90;;;;;;5027361;28;19920;-82
2022/09/30 05:24:22;;;;;;;;;;;8.10;99.90;;;;;;5041827;28;20003;-82
2022/09/30 05:26:48;;;;;;;;;;;8.10;99.90;;;;;;5027138;28;19917;-81
2022/09/30 05:29:13;;;;;;;;;;;8.10;99.90;;;;;;5027644;28;19913;-79
2022/09/30 05:31:41;;;;;;;;;;;8.10;99.90;;;;;;5009346;28;19921;-80
2022/09/30 05:34:07;;;;;;;;;;;8.10;99.90;;;;;;5027568;28;19925;-81
2022/09/30 05:36:32;;;;;;;;;;;8.10;99.90;;;;;;5026925;28;19913;-78
2022/09/30 05:38:58;;;;;;;;;;;8.10;99.90;;;;;;5008574;28;20015;-79
2022/09/30 05:41:23;;;;;;;;;;;8.20;99.90;;;;;;5023706;28;19921;-79
2022/09/30 05:43:49;;;;;;;;;;;8.20;99.90;;;;;;5007538;28;20459;-79
2022/09/30 05:46:15;;;;;;;;;;;8.20;99.90;;;;;;5009075;28;19917;-79
2022/09/30 05:48:41;;;;;;;;;;;8.00;99.90;;;;;;5009981;28;19971;-79
2022/09/30 05:51:06;;;;;;;;;;;8.00;99.90;;;;;;5027521;28;19914;-80
2022/09/30 05:53:33;;;;;;;;;;;8.10;99.90;;;;;;5026390;28;20633;-79
2022/09/30 05:55:59;;;;;;;;;;;8.10;99.90;;;;;;5027424;28;19914;-79
2022/09/30 05:58:25;;;;;;;;;;;8.20;99.90;;;;;;5027633;28;19920;-79
2022/09/30 06:00:50;;;;;;;;;;;8.10;99.90;;;;;;5009209;28;19910;-79
2022/09/30 06:03:16;;;;;;;;;;;8.10;99.90;;;;;;5016439;28;19936;-80
2022/09/30 06:05:44;;;;;;;;;;;8.20;99.90;;;;;;5025378;28;19920;-79
2022/09/30 06:08:10;;;;;;;;;;;8.30;99.90;;;;;;5010010;28;19976;-79
2022/09/30 06:10:35;;;;;;;;;;;8.30;99.90;;;;;;5030278;28;19994;-79
2022/09/30 06:13:02;;;;;;;;;;;8.30;99.90;;;;;;5012925;28;20708;-79
2022/09/30 06:15:28;;;;;;;;;;;8.40;99.90;;;;;;5030593;28;19925;-79
2022/09/30 06:17:53;;;;;;;;;;;8.50;99.90;;;;;;5030656;28;19959;-79
2022/09/30 06:20:19;;;;;;;;;;;8.50;99.90;;;;;;5027518;28;19917;-80
2022/09/30 06:22:44;;;;;;;;;;;8.50;99.90;;;;;;5030540;28;20003;-80
2022/09/30 06:25:10;;;;;;;;;;;8.50;99.90;;;;;;5030587;28;19920;-79
2022/09/30 06:27:36;;;;;;;;;;;8.60;99.90;;;;;;5030045;28;19943;-80
2022/09/30 06:30:05;;;;;;;;;;;8.50;99.90;;;;;;5029765;28;19913;-80
2022/09/30 06:32:32;;;;;;;;;;;8.60;99.90;;;;;;5008686;28;19913;-81
2022/09/30 06:34:57;;;;;;;;;;;8.60;99.90;;;;;;5030488;28;19917;-80
2022/09/30 06:37:23;;;;;;;;;;;8.60;99.90;;;;;;5030392;28;20020;-80
2022/09/30 06:39:49;;;;;;;;;;;8.50;99.90;;;;;;5029946;28;19917;-80
2022/09/30 06:42:15;;;;;;;;;;;8.40;99.90;;;;;;5012623;28;19986;-82
2022/09/30 06:44:41;;;;;;;;;;;8.70;99.90;;;;;;5030258;28;19956;-81
2022/09/30 06:47:07;;;;;;;;;;;9.00;99.90;;;;;;5029985;28;19980;-80
2022/09/30 06:49:33;;;;;;;;;;;9.10;99.90;;;;;;5033700;28;19952;-81
2022/09/30 06:52:00;;;;;;;;;;;9.40;99.90;;;;;;5029466;28;19956;-80
2022/09/30 06:54:27;;;;;;;;;;;9.80;99.90;;;;;;5030604;28;19917;-81
2022/09/30 06:56:56;;;;;;;;;;;10.00;99.90;;;;;;5012390;28;19910;-81
2022/09/30 06:59:25;;;;;;;;;;;9.70;99.90;;;;;;5030369;28;20669;-80
2022/09/30 07:01:51;;;;;;;;;;;9.70;99.90;;;;;;5012331;28;19921;-80
2022/09/30 07:04:16;;;;;;;;;;;9.50;99.90;;;;;;5028761;28;19920;-80
2022/09/30 07:06:42;;;;;;;;;;;9.40;99.90;;;;;;5012047;28;19917;-80
2022/09/30 07:09:08;;;;;;;;;;;9.70;99.90;;;;;;5029887;28;19913;-79
2022/09/30 07:11:36;;;;;;;;;;;9.70;99.90;;;;;;5029496;28;19917;-81
2022/09/30 07:14:03;;;;;;;;;;;9.90;99.90;;;;;;5011931;28;19932;-80
2022/09/30 07:16:29;;;;;;;;;;;10.50;99.90;;;;;;5029788;28;20662;-83
2022/09/30 07:18:55;;;;;;;;;;;11.70;99.90;;;;;;5028732;28;19931;-80
2022/09/30 07:21:20;;;;;;;;;;;11.00;99.90;;;;;;5011995;28;20011;-81
2022/09/30 07:23:46;;;;;;;;;;;11.00;99.90;;;;;;5011089;28;20411;-79
2022/09/30 07:26:19;;;;;;;;;;;10.60;99.90;;;;;;5011033;28;19914;-81
2022/09/30 07:28:45;;;;;;;;;;;10.30;99.90;;;;;;5033634;28;19974;-82
2022/09/30 07:31:16;;;;;;;;;;;10.20;99.90;;;;;;5038123;28;19913;-81
2022/09/30 07:33:42;;;;;;;;;;;9.90;99.90;;;;;;5010966;28;19917;-83
2022/09/30 07:36:08;;;;;;;;;;;9.90;99.90;;;;;;5011471;28;19921;-81
2022/09/30 07:38:35;;;;;;;;;;;9.80;99.90;;;;;;5010656;28;19952;-82
2022/09/30 07:41:03;;;;;;;;;;;9.80;99.90;;;;;;5027484;28;19917;-82
2022/09/30 07:43:33;;;;;;;;;;;9.70;99.90;;;;;;5010992;28;19921;-82
2022/09/30 07:46:05;;;;;;;;;;;9.80;99.90;;;;;;5029525;28;19920;-81
2022/09/30 07:48:43;;;;;;;;;;;10.00;99.90;;;;;;5029673;28;19976;-81
2022/09/30 07:51:13;;;;;;;;;;;10.10;99.90;;;;;;5029679;28;19912;-81
2022/09/30 07:53:39;;;;;;;;;;;10.10;99.90;;;;;;5017906;28;19913;-81
2022/09/30 07:56:05;;;;;;;;;;;10.10;99.90;;;;;;5029268;28;19909;-81
2022/09/30 07:58:31;;;;;;;;;;;9.90;99.90;;;;;;5029472;28;19920;-81
2022/09/30 08:00:57;;;;;;;;;;;10.00;99.90;;;;;;5011083;28;19982;-81
2022/09/30 08:03:22;;;;;;;;;;;10.10;99.90;;;;;;5028424;28;20933;-82
2022/09/30 08:05:48;;;;;;;;;;;10.50;99.90;;;;;;5027955;28;19913;-81
2022/09/30 08:08:14;;;;;;;;;;;10.60;99.90;;;;;;5010685;28;20510;-81
2022/09/30 08:10:40;;;;;;;;;;;10.70;99.90;;;;;;5028491;28;19920;-82
2022/09/30 08:13:06;;;;;;;;;;;11.00;99.90;;;;;;5010935;28;20383;-81
2022/09/30 08:15:31;;;;;;;;;;;12.10;99.90;;;;;;5010845;28;19953;-81
2022/09/30 08:17:57;;;;;;;;;;;11.80;99.90;;;;;;5028559;28;19921;-81
2022/09/30 08:20:22;;;;;;;;;;;11.50;99.90;;;;;;5028641;28;19924;-82
2022/09/30 08:22:52;;;;;;;;;;;11.70;99.90;;;;;;5011098;28;19924;-82
2022/09/30 08:25:18;;;;;;;;;;;11.80;99.90;;;;;;5010961;28;20766;-81
2022/09/30 08:27:43;;;;;;;;;;;12.00;99.90;;;;;;5028716;28;20117;-82
2022/09/30 08:30:09;;;;;;;;;;;13.30;99.90;;;;;;5028397;28;19917;-81
2022/09/30 08:32:34;;;;;;;;;;;12.80;99.90;;;;;;5010268;28;19913;-81
2022/09/30 08:35:00;;;;;;;;;;;14.90;99.90;;;;;;5010398;28;19921;-82
2022/09/30 08:37:26;;;;;;;;;;;14.20;99.90;;;;;;5011026;28;19913;-81
2022/09/30 08:39:51;;;;;;;;;;;13.90;99.90;;;;;;5028559;28;20049;-81
2022/09/30 08:42:36;;;;;;;;;;;14.60;99.90;;;;;;5009735;28;19967;-81
2022/09/30 08:45:21;;;;;;;;;;;14.90;99.90;;;;;;5027732;28;19959;-81
2022/09/30 08:48:09;;;;;;;;;;;14.40;99.90;;;;;;5017536;28;20593;-82
2022/09/30 08:50:42;;;;;;;;;;;15.20;99.90;;;;;;5028055;28;19999;-82
2022/09/30 08:53:15;;;;;;;;;;;15.80;99.90;;;;;;5010376;28;19909;-82
2022/09/30 08:55:42;;;;;;;;;;;16.00;99.90;;;;;;5009442;28;19941;-82
2022/09/30 08:58:20;;;;;;;;;;;15.70;99.90;;;;;;5009726;28;19966;-82
2022/09/30 09:00:47;;;;;;;;;;;16.00;99.90;;;;;;5017608;28;20501;-82
2022/09/30 09:03:13;;;;;;;;;;;16.30;99.90;;;;;;5027191;28;19913;-82
2022/09/30 09:05:45;;;;;;;;;;;16.50;99.90;;;;;;5027662;28;20367;-81
2022/09/30 09:08:20;;;;;;;;;;;16.60;99.90;;;;;;5009472;28;21925;-81
2022/09/30 09:10:50;;;;;;;;;;;17.00;99.90;;;;;;5009878;28;19913;-82
2022/09/30 09:13:15;;;;;;;;;;;17.40;99.90;;;;;;5022700;28;19920;-82
2022/09/30 09:15:41;;;;;;;;;;;17.50;99.90;;;;;;5027699;28;19913;-82
2022/09/30 09:18:17;;;;;;;;;;;17.80;99.50;;;;;;5027274;28;19928;-82
2022/09/30 09:20:54;;;;;;;;;;;17.10;99.90;;;;;;5042750;28;19917;-83
2022/09/30 09:23:20;;;;;;;;;;;17.30;99.90;;;;;;5026830;28;19931;-83
2022/09/30 09:25:51;;;;;;;;;;;17.20;99.60;;;;;;5028103;28;19917;-84
2022/09/30 09:28:26;;;;;;;;;;;17.70;98.60;;;;;;5028122;28;19919;-83
2022/09/30 09:30:56;;;;;;;;;;;17.20;98.20;;;;;;5028297;28;20406;-83
2022/09/30 09:33:26;;;;;;;;;;;16.80;99.30;;;;;;5015939;28;20414;-83
2022/09/30 09:36:06;;;;;;;;;;;15.90;99.90;;;;;;5027474;28;20320;-83
2022/09/30 09:38:37;;;;;;;;;;;15.60;99.90;;;;;;5026117;28;19985;-84
2022/09/30 09:41:06;;;;;;;;;;;16.10;99.90;;;;;;5017141;28;19921;-81
2022/09/30 09:43:32;;;;;;;;;;;16.90;99.90;;;;;;5028074;28;19921;-82
2022/09/30 09:46:17;;;;;;;;;;;17.30;99.90;;;;;;5027980;28;19924;-82
2022/09/30 09:48:43;;;;;;;;;;;16.90;99.90;;;;;;5030636;28;19925;-82
2022/09/30 09:51:21;;;;;;;;;;;16.70;99.90;;;;;;5013170;28;19916;-85
2022/09/30 09:53:48;;;;;;;;;;;16.90;99.90;;;;;;5029455;28;19924;-83
2022/09/30 09:56:17;;;;;;;;;;;16.70;99.90;;;;;;5013247;28;19918;-81
2022/09/30 09:59:02;;;;;;;;;;;16.10;99.90;;;;;;5031354;28;19917;-81
2022/09/30 10:01:32;;;;;;;;;;;15.70;99.90;;;;;;5010907;28;20031;-81
2022/09/30 10:04:09;;;;;;;;;;;16.60;99.90;;;;;;5023915;28;19921;-82
2022/09/30 10:06:43;;;;;;;;;;;16.60;99.90;;;;;;5008578;28;19921;-81
2022/09/30 10:09:21;;;;;;;;;;;17.00;99.90;;;;;;5030334;28;19917;-81
2022/09/30 10:11:46;;;;;;;;;;;16.50;99.90;;;;;;5023568;28;19917;-81
2022/09/30 10:14:16;;;;;;;;;;;16.40;99.90;;;;;;5030885;28;19913;-82
2022/09/30 10:16:42;;;;;;;;;;;16.50;99.90;;;;;;5030045;28;19913;-81
2022/09/30 10:19:19;;;;;;;;;;;16.50;99.90;;;;;;5031147;28;19927;-81
2022/09/30 10:21:45;;;;;;;;;;;16.30;99.90;;;;;;5031722;28;19913;-81
2022/09/30 10:24:19;;;;;;;;;;;16.80;99.90;;;;;;5031010;28;20419;-81
2022/09/30 10:26:45;;;;;;;;;;;16.90;99.90;;;;;;5030263;28;19921;-81
2022/09/30 10:29:24;;;;;;;;;;;16.70;99.90;;;;;;5030409;28;19913;-81
2022/09/30 10:31:50;;;;;;;;;;;16.30;99.90;;;;;;5012597;28;19917;-81
2022/09/30 10:34:30;;;;;;;;;;;16.90;99.90;;;;;;5030559;28;19919;-81
2022/09/30 10:36:56;;;;;;;;;;;16.40;99.90;;;;;;5030560;28;19917;-81
2022/09/30 10:39:22;;;;;;;;;;;16.80;99.90;;;;;;5013643;28;20466;-82
2022/09/30 10:41:48;;;;;;;;;;;16.10;99.90;;;;;;5029680;28;19917;-81
2022/09/30 10:44:23;;;;;;;;;;;16.60;99.90;;;;;;5028377;28;19969;-81
2022/09/30 10:46:50;;;;;;;;;;;16.40;99.90;;;;;;5013066;28;19921;-82
2022/09/30 10:49:27;;;;;;;;;;;16.40;99.90;;;;;;5033002;28;20380;-83
2022/09/30 10:51:54;;;;;;;;;;;16.40;99.90;;;;;;5030445;28;19915;-82
2022/09/30 10:54:31;;;;;;;;;;;16.30;99.90;;;;;;5029874;28;20015;-82
2022/09/30 10:57:01;;;;;;;;;;;16.40;99.90;;;;;;5028878;28;19917;-82
2022/09/30 10:59:33;;;;;;;;;;;16.40;99.90;;;;;;5025468;28;20399;-81
2022/09/30 11:02:19;;;;;;;;;;;16.50;99.90;;;;;;5026640;28;19921;-81
2022/09/30 11:05:05;;;;;;;;;;;16.80;99.90;;;;;;5027934;28;19917;-81
2022/09/30 11:07:43;;;;;;;;;;;17.10;99.90;;;;;;5001062;28;19917;-82
2022/09/30 11:10:24;;;;;;;;;;;17.50;99.90;;;;;;5025630;28;20479;-82
2022/09/30 11:13:08;;;;;;;;;;;17.90;99.90;;;;;;5030285;28;19941;-82
2022/09/30 11:15:41;;;;;;;;;;;17.50;99.90;;;;;;5043605;28;19928;-80
2022/09/30 11:18:10;;;;;;;;;;;17.80;99.90;;;;;;5011702;28;19932;-80
2022/09/30 11:20:42;;;;;;;;;;;17.90;99.40;;;;;;5011627;28;19913;-80
2022/09/30 11:23:13;;;;;;;;;;;17.80;99.20;;;;;;5029191;28;19925;-81
2022/09/30 11:25:39;;;;;;;;;;;18.10;99.20;;;;;;5029073;28;19980;-81
2022/09/30 11:28:11;;;;;;;;;;;18.20;98.80;;;;;;5028997;28;20350;-82
2022/09/30 11:30:47;;;;;;;;;;;18.30;98.10;;;;;;5012001;28;19987;-82
2022/09/30 11:33:21;;;;;;;;;;;18.00;97.30;;;;;;5044869;28;19957;-83
2022/09/30 11:35:50;;;;;;;;;;;17.70;97.20;;;;;;5012321;28;19913;-82
2022/09/30 11:38:18;;;;;;;;;;;17.60;98.20;;;;;;5029061;28;19917;-82
2022/09/30 11:40:50;;;;;;;;;;;17.30;96.70;;;;;;5029053;28;20024;-82
2022/09/30 11:43:15;;;;;;;;;;;17.20;97.70;;;;;;5028971;28;19917;-82
2022/09/30 11:45:56;;;;;;;;;;;17.20;98.50;;;;;;5029471;28;19913;-82
2022/09/30 11:48:35;;;;;;;;;;;17.00;97.50;;;;;;5026981;28;19917;-82
2022/09/30 11:51:01;;;;;;;;;;;17.20;98.60;;;;;;5011415;28;19913;-82
2022/09/30 11:53:36;;;;;;;;;;;17.10;96.00;;;;;;5029147;28;19917;-81
2022/09/30 11:56:06;;;;;;;;;;;16.80;98.00;;;;;;5010608;28;19924;-82
2022/09/30 11:58:44;;;;;;;;;;;16.90;98.10;;;;;;5004246;28;19920;-81
2022/09/30 12:01:12;;;;;;;;;;;17.10;99.10;;;;;;5028896;28;19952;-81
2022/09/30 12:03:40;;;;;;;;;;;17.20;99.10;;;;;;5028250;28;19921;-81
2022/09/30 12:06:15;;;;;;;;;;;17.30;98.40;;;;;;5019191;28;19960;-82
2022/09/30 12:08:47;;;;;;;;;;;17.80;98.50;;;;;;5028822;28;20435;-82
2022/09/30 12:11:15;;;;;;;;;;;18.20;97.40;;;;;;5028500;28;20008;-83
2022/09/30 12:13:43;;;;;;;;;;;18.60;96.30;;;;;;5040269;28;19912;-82
2022/09/30 12:16:19;;;;;;;;;;;18.70;94.90;;;;;;5028690;28;20004;-82
2022/09/30 12:18:48;;;;;;;;;;;18.50;92.80;;;;;;5010431;28;19921;-82
2022/09/30 12:21:21;;;;;;;;;;;18.20;93.30;;;;;;5028684;28;19917;-82
2022/09/30 12:23:59;;;;;;;;;;;18.20;92.10;;;;;;5028096;28;19921;-82
2022/09/30 12:26:25;;;;;;;;;;;18.20;93.90;;;;;;4999542;28;19953;-81
2022/09/30 12:32:00;;;;;;;;;;;18.10;93.50;;;;;;5029185;28;19916;-82
2022/09/30 12:34:35;;;;;;;;;;;18.60;92.40;;;;;;5027245;28;19916;-82
2022/09/30 12:37:03;;;;;;;;;;;18.10;91.80;;;;;;5027857;28;19917;-84
2022/09/30 12:39:48;;;;;;;;;;;18.00;93.90;;;;;;5027741;28;19967;-83
2022/09/30 12:42:16;;;;;;;;;;;17.60;93.40;;;;;;5028388;28;19967;-83
2022/09/30 12:44:50;;;;;;;;;;;17.80;93.80;;;;;;5011080;28;19913;-83
2022/09/30 12:47:21;;;;;;;;;;;17.60;93.00;;;;;;5025645;28;19920;-85
2022/09/30 12:49:46;;;;;;;;;;;17.30;93.30;;;;;;5026751;28;19909;-82
2022/09/30 12:52:14;;;;;;;;;;;17.40;93.40;;;;;;5010509;28;19917;-82
2022/09/30 12:54:42;;;;;;;;;;;17.50;92.50;;;;;;5027775;28;20000;-82
2022/09/30 12:57:08;;;;;;;;;;;17.40;92.50;;;;;;5010024;28;19918;-82
2022/09/30 12:59:47;;;;;;;;;;;17.40;92.10;;;;;;5028190;28;19939;-82
2022/09/30 13:02:26;;;;;;;;;;;17.50;92.90;;;;;;5007764;28;19988;-82
2022/09/30 13:04:51;;;;;;;;;;;17.80;91.70;;;;;;5027465;28;19913;-81
2022/09/30 13:07:19;;;;;;;;;;;18.00;91.60;;;;;;5028795;28;19920;-81
2022/09/30 13:09:55;;;;;;;;;;;18.30;92.50;;;;;;5009284;28;19974;-83
2022/09/30 13:12:38;;;;;;;;;;;18.60;91.60;;;;;;5010270;28;20584;-88
2022/09/30 13:15:42;;;;;;;;;;;18.50;88.40;;;;;;5010785;28;19956;-83
2022/09/30 13:18:20;;;;;;;;;;;18.20;91.30;;;;;;4964051;28;19922;-83
2022/09/30 13:20:53;;;;;;;;;;;17.90;92.30;;;;;;4988356;28;19961;-81
2022/09/30 13:23:28;;;;;;;;;;;18.30;90.20;;;;;;5014293;28;20011;-81
2022/09/30 13:25:53;;;;;;;;;;;18.20;91.90;;;;;;5028349;28;19921;-81
2022/09/30 13:28:23;;;;;;;;;;;17.80;92.40;;;;;;5030292;28;19917;-80
2022/09/30 13:30:48;;;;;;;;;;;17.70;92.50;;;;;;5029740;28;19983;-80
2022/09/30 13:33:39;;;;;;;;;;;17.70;92.20;;;;;;5031843;28;19917;-80
2022/09/30 13:36:06;;;;;;;;;;;17.70;90.30;;;;;;5030120;28;19956;-80
2022/09/30 13:38:33;;;;;;;;;;;17.80;90.40;;;;;;5031137;28;19913;-80
2022/09/30 13:41:05;;;;;;;;;;;17.70;88.60;;;;;;5031917;28;20937;-81
2022/09/30 13:43:37;;;;;;;;;;;17.50;87.20;;;;;;5032063;28;19913;-80
2022/09/30 13:46:21;;;;;;;;;;;17.30;88.00;;;;;;5030198;28;20413;-81
2022/09/30 13:48:53;;;;;;;;;;;17.10;88.50;;;;;;5026241;28;19913;-81
2022/09/30 13:51:20;;;;;;;;;;;17.20;89.20;;;;;;5031569;28;20307;-81
2022/09/30 13:53:50;;;;;;;;;;;17.20;90.40;;;;;;5031232;28;19983;-80
2022/09/30 13:56:25;;;;;;;;;;;17.60;91.30;;;;;;5031784;28;19913;-81
2022/09/30 13:59:00;;;;;;;;;;;17.60;90.20;;;;;;5027423;28;19919;-81
2022/09/30 14:01:34;;;;;;;;;;;17.70;90.30;;;;;;5028013;28;19909;-81
2022/09/30 14:04:03;;;;;;;;;;;17.90;89.50;;;;;;5031578;28;19920;-80
2022/09/30 14:06:35;;;;;;;;;;;18.00;90.70;;;;;;5031767;28;19963;-81
2022/09/30 14:09:17;;;;;;;;;;;18.10;90.20;;;;;;5030718;28;19920;-81
2022/09/30 14:11:58;;;;;;;;;;;18.20;90.40;;;;;;5026252;28;19936;-80
2022/09/30 14:14:39;;;;;;;;;;;18.30;90.50;;;;;;5030464;28;19920;-80
2022/09/30 14:17:22;;;;;;;;;;;17.80;90.30;;;;;;5031127;28;19924;-80
2022/09/30 14:19:57;;;;;;;;;;;17.70;90.10;;;;;;5024746;28;19913;-80
2022/09/30 14:22:25;;;;;;;;;;;17.60;90.70;;;;;;5030846;28;19917;-80
2022/09/30 14:24:51;;;;;;;;;;;17.50;88.60;;;;;;5030505;28;19913;-80
2022/09/30 14:27:36;;;;;;;;;;;17.30;88.90;;;;;;5028102;28;19924;-80
2022/09/30 14:30:01;;;;;;;;;;;17.30;89.90;;;;;;5023653;28;19928;-82
2022/09/30 14:32:30;;;;;;;;;;;17.20;89.10;;;;;;5029499;28;20295;-80
2022/09/30 14:34:57;;;;;;;;;;;17.10;89.20;;;;;;5025755;28;19928;-79
2022/09/30 14:37:27;;;;;;;;;;;16.80;90.60;;;;;;5028806;28;19917;-81
2022/09/30 14:39:53;;;;;;;;;;;16.70;91.50;;;;;;5023078;28;19951;-80
2022/09/30 14:42:23;;;;;;;;;;;16.60;90.80;;;;;;5015849;28;19914;-80